Time;durP1;ratioP1;P1;durP2;ratioP2;P2;SDS_P1;SDS_P2;PMS_P1;PMS_P2;Temp;Humidity;BMP_temperature;BMP_pressure;BME280_temperature;BME280_humidity;BME280_pressure;Samples;Min_cycle;Max_cycle;Signal;HPM_P1;HPM_P2
2022/10/06 00:00:47;;;;;;;3.45;2.83;;;;;;;7.83;84.00;99125.94;4916276;29;20093;-58
2022/10/06 00:03:14;;;;;;;5.22;3.20;;;;;;;7.83;83.87;99126.75;4917552;29;20426;-57
2022/10/06 00:05:39;;;;;;;3.60;2.90;;;;;;;7.79;83.81;99117.66;4917547;29;20539;-58
2022/10/06 00:08:05;;;;;;;2.85;2.47;;;;;;;7.78;84.20;99128.47;4917111;29;20139;-59
2022/10/06 00:10:31;;;;;;;3.35;2.60;;;;;;;7.84;84.11;99122.28;4917402;29;20040;-59
2022/10/06 00:12:57;;;;;;;3.33;2.60;;;;;;;7.80;84.40;99119.28;4916158;29;20048;-59
2022/10/06 00:15:26;;;;;;;3.30;2.53;;;;;;;7.83;83.92;99131.22;4917399;29;20086;-59
2022/10/06 00:17:52;;;;;;;4.47;2.50;;;;;;;7.83;84.58;99129.38;4915886;29;20036;-59
2022/10/06 00:20:18;;;;;;;4.43;2.67;;;;;;;7.87;84.58;99138.44;4917239;29;20395;-59
2022/10/06 00:22:46;;;;;;;4.45;2.53;;;;;;;7.91;84.43;99134.34;4916870;29;20498;-59
2022/10/06 00:25:14;;;;;;;4.13;2.70;;;;;;;7.86;84.55;99136.84;4899925;29;20044;-58
2022/10/06 00:27:42;;;;;;;4.22;2.80;;;;;;;7.88;84.26;99140.09;4916756;29;20063;-59
2022/10/06 00:30:10;;;;;;;3.75;2.45;;;;;;;7.90;84.77;99143.28;4916885;29;20052;-58
2022/10/06 00:32:36;;;;;;;3.15;2.45;;;;;;;7.86;84.81;99139.50;4917014;29;20051;-58
2022/10/06 00:35:03;;;;;;;4.13;2.40;;;;;;;7.91;84.77;99137.00;4899897;29;20521;-58
2022/10/06 00:37:33;;;;;;;4.05;2.70;;;;;;;7.99;84.37;99140.31;4899696;29;20044;-58
2022/10/06 00:40:00;;;;;;;4.47;2.65;;;;;;;7.99;84.31;99138.47;4916951;29;20107;-58
2022/10/06 00:42:30;;;;;;;4.30;3.20;;;;;;;8.03;84.11;99128.28;4915380;29;20064;-58
2022/10/06 00:44:59;;;;;;;3.88;2.67;;;;;;;7.99;84.55;99140.31;4884129;29;20059;-58
2022/10/06 00:47:25;;;;;;;3.30;2.45;;;;;;;7.95;84.03;99129.41;4899681;29;20059;-58
2022/10/06 00:49:53;;;;;;;3.72;2.55;;;;;;;7.91;84.49;99129.06;4916664;29;20048;-58
2022/10/06 00:52:22;;;;;;;5.18;2.45;;;;;;;7.91;84.74;99123.78;4916206;29;20040;-57
2022/10/06 00:54:47;;;;;;;3.63;2.97;;;;;;;7.95;84.79;99135.50;4899477;29;20079;-58
2022/10/06 00:57:13;;;;;;;5.68;2.40;;;;;;;7.97;84.56;99138.72;4916341;29;20143;-58
2022/10/06 00:59:39;;;;;;;4.22;2.88;;;;;;;7.98;84.40;99139.53;4899244;29;20055;-59
2022/10/06 01:02:14;;;;;;;3.30;2.67;;;;;;;8.04;84.32;99140.47;4899425;29;20080;-59
2022/10/06 01:04:44;;;;;;;4.47;2.75;;;;;;;8.08;84.13;99136.31;4899548;29;20048;-57
2022/10/06 01:07:10;;;;;;;4.75;2.70;;;;;;;8.08;84.54;99139.75;4898286;29;20403;-58
2022/10/06 01:09:36;;;;;;;3.85;2.60;;;;;;;8.03;84.60;99141.47;4899083;29;20478;-60
2022/10/06 01:12:04;;;;;;;4.53;2.75;;;;;;;8.02;84.45;99138.03;4916054;29;20044;-59
2022/10/06 01:14:30;;;;;;;3.70;2.40;;;;;;;8.06;84.27;99141.84;4915923;29;20086;-58
2022/10/06 01:17:01;;;;;;;4.38;2.95;;;;;;;8.08;84.55;99141.59;4883615;29;20502;-59
2022/10/06 01:19:30;;;;;;;5.07;2.80;;;;;;;8.12;84.67;99140.94;4899277;29;20052;-59
2022/10/06 01:21:57;;;;;;;4.35;2.58;;;;;;;8.16;84.03;99134.16;4916114;29;20044;-58
2022/10/06 01:24:23;;;;;;;3.63;2.53;;;;;;;8.17;83.97;99137.59;4883543;29;20134;-58
2022/10/06 01:26:50;;;;;;;4.10;2.75;;;;;;;8.17;84.29;99121.75;4915361;29;20452;-58
2022/10/06 01:29:16;;;;;;;3.42;2.55;;;;;;;8.17;84.14;99124.38;4914555;29;20044;-60
2022/10/06 01:31:42;;;;;;;3.85;2.97;;;;;;;8.16;83.76;99126.22;4883201;29;20055;-59
2022/10/06 01:34:09;;;;;;;4.78;2.60;;;;;;;8.15;84.09;99121.19;4898882;29;20071;-58
2022/10/06 01:36:34;;;;;;;4.90;2.70;;;;;;;8.16;83.89;99122.78;4915556;29;20413;-59
2022/10/06 01:39:00;;;;;;;6.70;2.85;;;;;;;8.13;84.12;99125.88;4898583;29;20051;-59
2022/10/06 01:41:26;;;;;;;6.82;2.72;;;;;;;8.14;83.77;99119.56;4898863;29;20032;-59
2022/10/06 01:43:53;;;;;;;3.92;2.85;;;;;;;8.13;83.83;99131.16;4898846;29;20530;-58
2022/10/06 01:46:20;;;;;;;3.38;2.70;;;;;;;8.03;84.37;99131.75;4914460;29;20501;-57
2022/10/06 01:48:46;;;;;;;3.75;2.80;;;;;;;8.03;84.88;99128.28;4898679;29;20084;-59
2022/10/06 01:51:14;;;;;;;3.78;2.72;;;;;;;8.02;84.51;99143.31;4914409;29;20493;-59
2022/10/06 01:53:41;;;;;;;3.20;2.22;;;;;;;8.05;84.73;99140.22;4898695;29;20047;-59
2022/10/06 01:56:07;;;;;;;4.25;2.97;;;;;;;8.14;84.63;99140.69;4898622;29;20056;-58
2022/10/06 01:58:34;;;;;;;3.30;2.67;;;;;;;8.18;84.35;99147.16;4914133;29;20538;-59
2022/10/06 02:01:07;;;;;;;4.18;2.75;;;;;;;8.20;84.42;99134.50;4914005;29;20052;-59
2022/10/06 02:03:38;;;;;;;3.70;2.83;;;;;;;8.16;84.30;99136.00;4915504;29;20092;-58
2022/10/06 02:06:04;;;;;;;3.35;2.65;;;;;;;8.09;84.00;99133.47;4915126;29;20130;-59
2022/10/06 02:08:31;;;;;;;6.78;3.03;;;;;;;8.07;84.57;99130.25;4898168;29;20040;-59
2022/10/06 02:11:03;;;;;;;6.70;3.10;;;;;;;8.08;84.66;99134.47;4914119;29;20130;-58
2022/10/06 02:13:29;;;;;;;3.00;2.70;;;;;;;8.06;84.83;99131.28;4898525;29;20036;-59
2022/10/06 02:15:57;;;;;;;8.10;2.83;;;;;;;8.12;84.30;99138.28;4914076;29;20513;-59
2022/10/06 02:18:24;;;;;;;5.63;3.20;;;;;;;8.14;84.82;99128.28;4897866;29;20037;-58
2022/10/06 02:20:49;;;;;;;7.72;4.88;;;;;;;8.14;84.80;99125.66;4898094;29;20114;-60
2022/10/06 02:23:15;;;;;;;7.70;3.63;;;;;;;8.15;84.64;99129.91;4915061;29;20108;-59
2022/10/06 02:25:41;;;;;;;4.63;3.20;;;;;;;8.17;83.86;99127.03;4882663;29;20065;-58
2022/10/06 02:28:06;;;;;;;5.43;3.38;;;;;;;8.20;84.38;99130.00;4898021;29;20071;-60
2022/10/06 02:30:33;;;;;;;5.22;3.50;;;;;;;8.24;84.05;99133.03;4898090;29;20060;-58
2022/10/06 02:32:59;;;;;;;5.35;3.15;;;;;;;8.26;84.44;99138.06;4898054;29;20032;-58
2022/10/06 02:35:25;;;;;;;6.18;3.70;;;;;;;8.31;84.30;99144.28;4897936;29;20055;-58
2022/10/06 02:37:51;;;;;;;4.10;3.15;;;;;;;8.35;84.02;99142.81;4915204;29;20032;-58
2022/10/06 02:40:18;;;;;;;5.03;3.38;;;;;;;8.34;83.40;99151.75;4913811;29;20085;-57
2022/10/06 02:42:44;;;;;;;4.72;3.45;;;;;;;8.31;83.76;99154.84;4915060;29;20051;-60
2022/10/06 02:45:11;;;;;;;9.57;3.95;;;;;;;8.32;84.33;99147.72;4897945;29;20075;-60
2022/10/06 02:47:37;;;;;;;4.38;3.50;;;;;;;8.30;84.68;99152.44;4913485;29;20047;-59
2022/10/06 02:50:06;;;;;;;4.50;2.90;;;;;;;8.33;84.31;99158.06;4915137;29;20056;-59
2022/10/06 02:52:35;;;;;;;7.13;3.92;;;;;;;8.35;83.79;99157.81;4913718;29;20143;-59
2022/10/06 02:55:03;;;;;;;4.55;3.15;;;;;;;8.34;84.32;99151.75;4897793;29;20052;-58
2022/10/06 02:57:29;;;;;;;7.88;4.78;;;;;;;8.36;83.87;99152.31;4882551;29;20064;-60
2022/10/06 02:59:56;;;;;;;6.50;4.00;;;;;;;8.38;83.76;99150.31;4882540;29;20052;-60
2022/10/06 03:02:22;;;;;;;4.70;3.28;;;;;;;8.40;83.54;99155.34;4897937;29;20184;-61
2022/10/06 03:04:48;;;;;;;4.78;3.42;;;;;;;8.40;83.77;99155.34;4913931;29;20052;-59
2022/10/06 03:07:14;;;;;;;9.50;6.22;;;;;;;8.40;83.97;99155.34;4913877;29;20039;-60
2022/10/06 03:09:40;;;;;;;4.72;3.28;;;;;;;8.35;83.59;99148.09;4914984;29;20084;-58
2022/10/06 03:12:07;;;;;;;5.47;3.63;;;;;;;8.33;83.65;99159.91;4913676;29;20099;-59
2022/10/06 03:14:38;;;;;;;7.47;5.47;;;;;;;8.32;83.86;99161.72;4897688;29;20056;-59
2022/10/06 03:17:08;;;;;;;4.05;3.28;;;;;;;8.31;83.57;99157.47;4898199;29;20048;-59
2022/10/06 03:19:36;;;;;;;5.03;3.35;;;;;;;8.28;83.88;99165.06;4898005;29;20048;-59
2022/10/06 03:22:03;;;;;;;5.72;3.28;;;;;;;8.29;84.01;99161.38;4882716;29;20405;-59
2022/10/06 03:24:38;;;;;;;5.22;3.45;;;;;;;8.34;83.68;99148.31;4897902;29;20080;-58
2022/10/06 03:27:04;;;;;;;8.25;3.92;;;;;;;8.36;83.35;99151.53;4913535;29;20131;-59
2022/10/06 03:29:30;;;;;;;5.47;3.40;;;;;;;8.37;83.14;99150.47;4898444;29;20076;-59
2022/10/06 03:31:57;;;;;;;4.93;3.55;;;;;;;8.45;83.07;99158.09;4916872;29;20036;-59
2022/10/06 03:34:23;;;;;;;6.22;4.18;;;;;;;8.50;82.97;99155.59;4900982;29;20055;-59
2022/10/06 03:36:49;;;;;;;5.40;3.72;;;;;;;8.52;82.64;99145.56;4918147;29;20040;-60
2022/10/06 03:39:18;;;;;;;6.50;4.18;;;;;;;8.51;83.26;99151.91;4901026;29;20056;-58
2022/10/06 03:41:44;;;;;;;6.20;3.70;;;;;;;8.56;82.76;99165.25;4916595;29;20106;-59
2022/10/06 03:44:10;;;;;;;4.93;3.75;;;;;;;8.58;82.78;99163.16;4885428;29;20048;-58
2022/10/06 03:46:40;;;;;;;5.47;3.60;;;;;;;8.55;82.68;99173.38;4916753;29;20520;-57
2022/10/06 03:49:06;;;;;;;6.30;4.00;;;;;;;8.57;82.72;99163.41;4916711;29;20437;-59
2022/10/06 03:51:37;;;;;;;5.00;3.47;;;;;;;8.58;83.03;99165.00;4900601;29;20529;-59
2022/10/06 03:54:09;;;;;;;5.85;3.80;;;;;;;8.58;83.33;99160.50;4900998;29;20405;-59
2022/10/06 03:56:39;;;;;;;5.78;3.80;;;;;;;8.63;83.28;99163.28;4901168;29;20082;-59
2022/10/06 03:59:15;;;;;;;7.93;4.07;;;;;;;8.62;82.28;99166.16;4885535;29;20054;-60
2022/10/06 04:01:44;;;;;;;6.00;3.88;;;;;;;8.66;82.64;99162.00;4916245;29;20551;-59
2022/10/06 04:04:13;;;;;;;7.75;4.20;;;;;;;8.71;82.56;99162.13;4917561;29;20518;-60
2022/10/06 04:06:42;;;;;;;5.70;3.72;;;;;;;8.68;82.64;99162.59;4900456;29;20075;-59
2022/10/06 04:09:11;;;;;;;;;;;;;;;8.73;82.95;99167.97;4916536;29;20548;-59
2022/10/06 04:11:38;;;;;;;8.63;4.28;;;;;;;8.74;82.59;99164.31;4915999;29;19923;-58
2022/10/06 04:14:07;;;;;;;6.38;3.72;;;;;;;8.75;82.50;99165.91;4915944;29;20052;-58
2022/10/06 04:16:40;;;;;;;6.97;4.32;;;;;;;8.75;82.54;99167.75;4900655;29;20048;-58
2022/10/06 04:19:08;;;;;;;6.90;3.85;;;;;;;8.75;82.86;99162.47;4884582;29;20059;-57
2022/10/06 04:21:37;;;;;;;6.93;4.00;;;;;;;8.82;82.54;99166.63;4884650;29;20044;-58
2022/10/06 04:24:06;;;;;;;6.20;4.43;;;;;;;8.87;82.90;99169.34;4900283;29;20047;-58
2022/10/06 04:26:39;;;;;;;6.60;3.88;;;;;;;8.94;82.53;99165.78;4900035;29;20425;-59
2022/10/06 04:29:05;;;;;;;5.65;4.20;;;;;;;9.00;82.30;99168.31;4915697;29;20048;-59
2022/10/06 04:31:35;;;;;;;6.18;4.28;;;;;;;9.02;81.81;99170.72;4917037;29;20103;-60
2022/10/06 04:34:02;;;;;;;5.68;3.83;;;;;;;9.06;82.05;99174.53;4915943;29;20087;-58
2022/10/06 04:36:31;;;;;;;6.20;4.18;;;;;;;9.07;81.94;99179.56;4900124;29;20123;-60
2022/10/06 04:39:02;;;;;;;7.43;4.15;;;;;;;8.99;81.75;99176.47;4916871;29;20048;-61
2022/10/06 04:41:31;;;;;;;8.50;4.22;;;;;;;9.02;82.21;99178.66;4899492;29;20512;-60
2022/10/06 04:43:58;;;;;;;6.95;4.53;;;;;;;9.08;82.04;99183.81;4883892;29;20044;-59
2022/10/06 04:46:25;;;;;;;6.85;4.30;;;;;;;9.09;81.48;99190.72;4914641;29;20096;-60
2022/10/06 04:48:53;;;;;;;7.68;4.22;;;;;;;9.14;81.68;99187.34;4915042;29;20051;-60
2022/10/06 04:51:21;;;;;;;7.68;4.43;;;;;;;9.15;81.32;99189.00;4899890;29;20119;-59
2022/10/06 04:53:48;;;;;;;5.07;4.07;;;;;;;9.18;80.82;99182.44;4899312;29;20040;-58
2022/10/06 04:56:20;;;;;;;7.05;4.80;;;;;;;9.17;81.52;99183.44;4899129;29;20048;-60
2022/10/06 04:58:48;;;;;;;7.55;4.55;;;;;;;9.20;81.22;99177.69;4915165;29;20509;-59
2022/10/06 05:01:20;;;;;;;8.80;4.75;;;;;;;9.22;82.00;99173.78;4899058;29;20067;-57
2022/10/06 05:03:48;;;;;;;8.38;4.72;;;;;;;9.19;82.17;99187.47;4915341;29;20044;-59
2022/10/06 05:06:18;;;;;;;10.90;7.20;;;;;;;9.21;82.02;99189.91;4916666;29;20051;-58
2022/10/06 05:08:53;;;;;;;9.52;5.50;;;;;;;9.20;82.04;99188.28;4915218;29;20071;-58
2022/10/06 05:11:19;;;;;;;6.45;4.45;;;;;;;9.21;82.49;99179.31;4916557;29;20454;-60
2022/10/06 05:13:45;;;;;;;6.32;4.45;;;;;;;9.28;82.00;99182.63;4916351;29;20047;-60
2022/10/06 05:16:13;;;;;;;7.25;4.90;;;;;;;9.37;81.37;99189.16;4901647;29;20067;-58
2022/10/06 05:18:40;;;;;;;8.05;4.93;;;;;;;9.38;81.49;99192.59;4898905;29;20044;-59
2022/10/06 05:21:10;;;;;;;6.75;4.60;;;;;;;9.41;81.46;99189.47;4914898;29;20139;-59
2022/10/06 05:23:37;;;;;;;9.30;5.05;;;;;;;9.49;81.54;99181.19;4916242;29;20071;-57
2022/10/06 05:26:04;;;;;;;7.80;5.47;;;;;;;9.59;81.00;99181.41;4914841;29;20618;-58
2022/10/06 05:28:30;;;;;;;7.00;4.53;;;;;;;9.68;80.98;99193.22;4883331;29;20059;-60
2022/10/06 05:30:59;;;;;;;7.65;4.75;;;;;;;9.71;80.03;99190.09;4898950;29;20514;-59
2022/10/06 05:33:27;;;;;;;7.72;4.88;;;;;;;9.69;80.80;99188.72;4896670;29;20047;-60
2022/10/06 05:35:55;;;;;;;6.82;5.13;;;;;;;9.76;80.29;99192.00;4898767;29;20565;-59
2022/10/06 05:38:21;;;;;;;8.02;5.07;;;;;;;9.84;80.40;99204.06;4915498;29;20043;-59
2022/10/06 05:40:48;;;;;;;5.85;4.60;;;;;;;9.86;79.92;99191.41;4914140;29;20048;-58
2022/10/06 05:43:14;;;;;;;10.00;6.38;;;;;;;9.94;79.93;99196.31;4914705;29;20051;-59
2022/10/06 05:45:45;;;;;;;7.43;5.03;;;;;;;10.00;79.48;99204.13;4914383;29;20044;-59
2022/10/06 05:48:11;;;;;;;7.32;4.93;;;;;;;10.09;79.35;99199.25;4882970;29;20055;-60
2022/10/06 05:50:37;;;;;;;6.13;4.65;;;;;;;10.11;79.02;99196.34;4914412;29;20406;-58
2022/10/06 05:53:03;;;;;;;6.53;4.10;;;;;;;10.10;79.27;99194.75;4915335;29;20520;-60
2022/10/06 05:55:30;;;;;;;8.73;4.63;;;;;;;10.08;79.70;99197.63;4915697;29;20135;-61
2022/10/06 05:57:56;;;;;;;7.38;5.15;;;;;;;10.18;79.20;99200.47;4915214;29;20067;-61
2022/10/06 06:00:22;;;;;;;6.30;4.43;;;;;;;10.32;79.35;99200.16;4915486;29;20122;-60
2022/10/06 06:02:48;;;;;;;7.45;4.60;;;;;;;10.43;78.49;99204.59;4882775;29;20091;-60
2022/10/06 06:05:14;;;;;;;5.00;3.80;;;;;;;10.43;78.01;99205.41;4882738;29;20052;-59
2022/10/06 06:07:39;;;;;;;6.63;4.43;;;;;;;10.44;77.61;99206.19;4914145;29;20399;-61
2022/10/06 06:10:05;;;;;;;5.43;4.43;;;;;;;10.47;78.16;99203.09;4866381;29;20123;-57
2022/10/06 06:12:31;;;;;;;5.30;3.97;;;;;;;10.54;77.70;99208.22;4913840;29;20072;-58
2022/10/06 06:18:08;;;;;;;6.90;4.13;;;;;;;10.69;77.17;99203.94;4897723;29;20070;-57
2022/10/06 06:20:35;;;;;;;5.85;3.97;;;;;;;10.82;77.02;99202.00;4911476;29;20044;-59
2022/10/06 06:23:00;;;;;;;7.43;3.95;;;;;;;10.85;76.40;99204.16;4913973;29;20032;-60
2022/10/06 06:25:27;;;;;;;4.88;3.78;;;;;;;10.92;76.17;99210.13;4898223;29;20040;-58
2022/10/06 06:27:55;;;;;;;4.65;3.78;;;;;;;10.97;75.88;99209.38;4898581;29;20159;-60
2022/10/06 06:30:21;;;;;;;5.60;3.97;;;;;;;10.90;76.28;99214.84;4913898;29;20502;-58
2022/10/06 06:32:47;;;;;;;6.35;3.95;;;;;;;10.90;76.85;99205.03;4867026;29;20080;-59
2022/10/06 06:35:13;;;;;;;4.85;3.42;;;;;;;11.02;75.91;99204.94;4882320;29;20131;-59
2022/10/06 06:37:39;;;;;;;5.68;3.72;;;;;;;11.16;75.57;99207.25;4898079;29;20503;-60
2022/10/06 06:40:05;;;;;;;5.60;3.70;;;;;;;11.19;75.79;99201.47;4897927;29;20565;-59
2022/10/06 06:42:36;;;;;;;5.80;3.72;;;;;;;11.23;75.82;99199.91;4898279;29;20048;-60
2022/10/06 06:45:21;;;;;;;5.45;4.05;;;;;;;11.13;75.24;99174.84;4915337;29;20497;-59
2022/10/06 06:48:03;;;;;;;6.20;3.75;;;;;;;11.39;74.92;99185.78;4913800;29;20083;-60
2022/10/06 06:50:31;;;;;;;5.05;4.03;;;;;;;11.49;75.16;99193.06;4897824;29;20422;-60
2022/10/06 06:52:57;;;;;;;6.55;4.13;;;;;;;11.40;74.92;99189.25;4882613;29;20071;-58
2022/10/06 06:55:23;;;;;;;7.63;4.18;;;;;;;11.37;75.51;99196.63;4913412;29;20143;-59
2022/10/06 06:57:48;;;;;;;6.25;4.32;;;;;;;11.40;75.73;99202.50;4897807;29;20601;-60
2022/10/06 07:00:16;;;;;;;5.72;4.18;;;;;;;11.45;75.61;99206.03;4897953;29;20063;-61
2022/10/06 07:02:42;;;;;;;4.75;3.80;;;;;;;11.39;75.62;99201.72;4898213;29;20067;-59
2022/10/06 07:05:10;;;;;;;6.82;4.00;;;;;;;11.36;75.72;99203.00;4903939;29;20036;-61
2022/10/06 07:07:36;;;;;;;7.10;3.90;;;;;;;11.27;76.29;99201.03;4916960;29;20044;-59
2022/10/06 07:10:03;;;;;;;8.27;4.45;;;;;;;11.24;75.66;99204.19;4901310;29;20055;-60
2022/10/06 07:12:31;;;;;;;6.68;4.10;;;;;;;11.17;76.05;99198.25;4899462;29;20049;-59
2022/10/06 07:26:06;;;;;;;7.47;4.45;;;;;;;11.13;77.19;99192.63;4900824;29;20058;-58
2022/10/06 07:28:32;;;;;;;7.13;3.67;;;;;;;11.10;77.02;99185.97;4899325;29;20051;-56
2022/10/06 07:30:59;;;;;;;8.02;4.65;;;;;;;11.23;77.12;99187.44;4900260;29;20099;-59
2022/10/06 07:33:31;;;;;;;5.50;3.75;;;;;;;11.43;75.88;99191.41;4916477;29;20196;-60
2022/10/06 07:35:57;;;;;;;8.15;4.65;;;;;;;11.47;75.48;99188.03;4870123;29;20047;-59
2022/10/06 07:38:24;;;;;;;7.70;5.00;;;;;;;11.52;75.85;99187.25;4915094;29;20048;-59
2022/10/06 07:40:56;;;;;;;7.28;4.53;;;;;;;11.46;76.18;99178.44;4899887;29;20164;-58
2022/10/06 07:43:25;;;;;;;6.70;4.47;;;;;;;11.51;75.97;99188.31;4915207;29;20051;-59
2022/10/06 07:45:51;;;;;;;8.02;4.80;;;;;;;11.43;76.36;99186.88;4914334;29;20107;-59
2022/10/06 07:48:22;;;;;;;7.25;4.65;;;;;;;11.36;76.15;99173.00;4914162;29;20064;-59
2022/10/06 07:50:59;;;;;;;8.20;4.30;;;;;;;11.46;76.16;99185.59;4914264;29;20513;-58
2022/10/06 07:53:29;;;;;;;7.25;4.70;;;;;;;11.47;75.98;99182.72;4916177;29;20093;-59
2022/10/06 07:56:06;;;;;;;6.30;4.20;;;;;;;11.39;76.34;99177.03;4913958;29;20531;-57
2022/10/06 07:58:37;;;;;;;7.68;4.75;;;;;;;11.30;76.70;99192.59;4914006;29;20497;-59
2022/10/06 08:01:09;;;;;;;8.77;4.97;;;;;;;11.19;77.45;99191.63;4897792;29;20531;-58
2022/10/06 08:03:39;;;;;;;5.90;4.43;;;;;;;11.21;77.93;99191.41;4898543;29;20051;-58
2022/10/06 08:06:06;;;;;;;9.35;5.43;;;;;;;11.20;77.92;99182.63;4916167;29;20442;-58
2022/10/06 08:08:36;;;;;;;8.48;5.20;;;;;;;11.08;79.14;99185.38;4899290;29;20048;-60
2022/10/06 08:11:03;;;;;;;5.88;3.90;;;;;;;11.09;78.78;99181.72;4916908;29;20461;-58
2022/10/06 08:13:31;;;;;;;6.80;4.88;;;;;;;11.07;78.30;99173.19;4916321;29;20048;-57
2022/10/06 08:16:12;;;;;;;6.00;4.20;;;;;;;11.09;78.40;99181.72;4897638;29;20542;-61
2022/10/06 08:18:37;;;;;;;8.02;4.20;;;;;;;11.10;79.52;99174.53;4914754;29;20040;-58
2022/10/06 08:21:15;;;;;;;6.20;4.63;;;;;;;11.15;78.99;99185.22;4915301;29;20040;-60
2022/10/06 08:23:42;;;;;;;8.43;4.55;;;;;;;11.28;78.94;99184.06;4913260;29;20036;-60
2022/10/06 08:26:12;;;;;;;5.85;4.32;;;;;;;11.33;78.46;99187.56;4916085;29;20051;-59
2022/10/06 08:28:38;;;;;;;6.78;4.25;;;;;;;11.27;78.53;99180.59;4914253;29;20052;-56
2022/10/06 08:31:05;;;;;;;6.82;4.57;;;;;;;11.32;78.29;99178.03;4914171;29;20055;-58
2022/10/06 08:33:31;;;;;;;6.47;4.40;;;;;;;11.32;78.15;99191.28;4898085;29;20131;-57
2022/10/06 08:36:04;;;;;;;7.82;4.90;;;;;;;11.20;79.08;99195.09;4898114;29;20044;-59
2022/10/06 08:38:30;;;;;;;5.35;3.95;;;;;;;11.26;78.59;99197.56;4914221;29;20078;-58
2022/10/06 08:40:56;;;;;;;9.32;6.80;;;;;;;11.22;79.37;99198.31;4896776;29;20142;-59
2022/10/06 08:43:23;;;;;;;6.38;4.65;;;;;;;11.17;79.24;99203.53;4915986;29;20046;-59
2022/10/06 08:45:51;;;;;;;9.48;6.60;;;;;;;11.21;79.25;99194.06;4914723;29;20064;-59
2022/10/06 08:48:19;;;;;;;6.45;5.00;;;;;;;11.25;79.21;99203.13;4911724;29;20088;-59
2022/10/06 08:51:05;;;;;;;6.55;4.90;;;;;;;11.27;78.83;99196.53;4897649;29;20078;-59
2022/10/06 08:53:58;;;;;;;6.47;4.65;;;;;;;11.32;78.15;99209.03;4881776;29;20135;-59
2022/10/06 08:56:28;;;;;;;7.30;4.65;;;;;;;11.29;78.80;99204.22;4915600;29;20052;-60
2022/10/06 08:58:57;;;;;;;;;;;;;;;11.28;79.24;99202.63;4899034;29;20036;-57
2022/10/06 09:01:31;;;;;;;6.57;5.43;;;;;;;11.26;79.23;99199.41;4913739;29;20475;-58
2022/10/06 09:04:02;;;;;;;8.98;4.68;;;;;;;11.26;79.07;99197.56;4899171;29;20550;-58
2022/10/06 09:07:14;;;;;;;9.38;5.30;;;;;;;11.24;79.09;99196.22;4899632;29;20082;-59
2022/10/06 09:09:42;;;;;;;7.22;4.78;;;;;;;11.12;80.28;99199.00;4861054;29;20488;-57
2022/10/06 09:12:23;;;;;;;11.55;5.57;;;;;;;11.02;81.05;99191.69;4912708;29;20083;-59
2022/10/06 09:15:05;;;;;;;8.55;5.53;;;;;;;11.02;81.10;99186.38;4898693;29;20395;-59
2022/10/06 09:17:48;;;;;;;7.88;4.95;;;;;;;11.14;80.65;99183.59;4914744;29;20055;-59
2022/10/06 09:20:43;;;;;;;7.47;5.00;;;;;;;11.22;80.45;99182.41;4882469;29;20036;-58
2022/10/06 09:23:13;;;;;;;8.35;5.15;;;;;;;11.33;80.06;99174.31;4912557;29;20064;-59
2022/10/06 09:25:39;;;;;;;9.93;6.25;;;;;;;11.43;80.16;99173.63;4882659;29;20156;-59
2022/10/06 09:28:10;;;;;;;7.20;5.25;;;;;;;11.43;79.65;99181.56;4913933;29;20532;-59
2022/10/06 09:30:36;;;;;;;9.32;6.68;;;;;;;11.43;79.80;99175.47;4898169;29;20044;-58
2022/10/06 09:33:03;;;;;;;9.75;6.00;;;;;;;11.48;79.61;99176.34;4915025;29;20169;-60
2022/10/06 09:35:30;;;;;;;8.20;5.50;;;;;;;11.53;79.51;99173.75;4914039;29;20047;-60
2022/10/06 09:38:02;;;;;;;7.25;5.93;;;;;;;11.47;79.48;99185.38;4914332;29;20044;-60
2022/10/06 09:40:53;;;;;;;9.15;5.93;;;;;;;11.53;79.44;99188.84;4913890;29;20135;-60
2022/10/06 09:43:24;;;;;;;10.52;6.85;;;;;;;11.53;79.29;99181.72;4898490;29;20479;-58
2022/10/06 09:45:53;;;;;;;10.00;6.78;;;;;;;11.62;78.92;99182.06;4896949;29;20542;-59
2022/10/06 09:48:26;;;;;;;10.75;7.03;;;;;;;11.68;78.94;99185.59;4895827;29;20245;-58
2022/10/06 09:51:14;;;;;;;10.27;6.88;;;;;;;11.77;78.29;99181.44;4911154;29;20558;-58
2022/10/06 09:53:41;;;;;;;9.38;6.38;;;;;;;11.79;77.66;99182.78;4896069;29;20422;-55
2022/10/06 09:56:17;;;;;;;9.18;6.47;;;;;;;11.79;77.64;99174.00;4912255;29;20051;-59
2022/10/06 09:58:56;;;;;;;8.63;6.40;;;;;;;11.81;78.43;99185.19;4893989;29;20138;-59
2022/10/06 10:01:25;;;;;;;9.45;6.53;;;;;;;11.69;78.74;99180.00;4894466;29;20052;-58
2022/10/06 10:03:59;;;;;;;8.45;6.50;;;;;;;11.73;79.18;99180.31;4913470;29;20070;-58
2022/10/06 10:06:28;;;;;;;11.38;7.03;;;;;;;11.73;78.05;99169.69;4892572;29;20436;-58
2022/10/06 10:09:20;;;;;;;11.52;7.47;;;;;;;11.82;78.30;99171.66;4894963;29;20048;-59
2022/10/06 10:12:23;;;;;;;15.68;9.57;;;;;;;11.94;78.53;99166.22;4907147;29;20056;-59
2022/10/06 10:14:57;;;;;;;9.52;7.22;;;;;;;12.09;77.49;99162.09;4910082;29;20064;-60
2022/10/06 10:17:31;;;;;;;10.93;7.50;;;;;;;12.27;77.12;99170.50;4907337;29;20540;-60
2022/10/06 10:19:58;;;;;;;11.43;7.38;;;;;;;12.47;76.82;99161.88;4912290;29;20080;-58
2022/10/06 10:22:33;;;;;;;11.05;6.85;;;;;;;12.59;75.32;99166.19;4895213;29;20048;-60
2022/10/06 10:25:04;;;;;;;9.93;6.95;;;;;;;12.58;75.11;99168.06;4895416;29;20043;-59
2022/10/06 10:27:54;;;;;;;12.35;7.55;;;;;;;12.61;75.43;99170.22;4913667;29;20044;-61
2022/10/06 10:30:23;;;;;;;9.80;7.70;;;;;;;12.52;75.13;99170.94;4909509;29;20405;-59
2022/10/06 10:32:51;;;;;;;11.15;6.88;;;;;;;12.48;75.28;99182.09;4894375;29;20048;-62
2022/10/06 10:35:26;;;;;;;13.20;6.95;;;;;;;12.53;75.51;99175.19;4910042;29;20052;-59
2022/10/06 10:37:55;;;;;;;10.85;7.05;;;;;;;12.60;75.39;99181.91;4895147;29;20047;-59
2022/10/06 10:40:26;;;;;;;8.98;7.15;;;;;;;12.55;75.18;99183.72;4916277;29;20490;-58
2022/10/06 10:43:10;;;;;;;9.25;6.95;;;;;;;12.54;75.21;99192.78;4915829;29;20486;-60
2022/10/06 10:45:42;;;;;;;11.25;7.80;;;;;;;12.55;75.35;99189.84;4917005;29;20055;-59
2022/10/06 10:48:27;;;;;;;9.73;7.70;;;;;;;12.53;75.00;99196.47;4899203;29;20509;-59
2022/10/06 10:51:17;;;;;;;10.85;7.90;;;;;;;12.50;75.37;99195.16;4916250;29;20055;-59
2022/10/06 10:53:50;;;;;;;;;;;;;;;12.44;76.12;99188.16;4915089;29;20059;-59
2022/10/06 10:56:18;;;;;;;10.30;6.68;;;;;;;12.45;76.03;99182.59;4899487;29;19926;-60
2022/10/06 10:58:47;;;;;;;10.05;7.22;;;;;;;12.40;75.80;99190.53;4915246;29;20072;-60
2022/10/06 11:01:45;;;;;;;11.80;7.18;;;;;;;12.30;76.13;99187.81;4900443;29;20554;-60
2022/10/06 11:04:12;;;;;;;10.02;6.93;;;;;;;12.39;75.89;99199.56;4867107;29;20044;-59
2022/10/06 11:06:38;;;;;;;10.18;7.30;;;;;;;12.45;75.69;99193.22;4898439;29;20070;-59
2022/10/06 11:09:17;;;;;;;10.98;7.88;;;;;;;12.46;75.65;99188.72;4914016;29;20510;-59
2022/10/06 11:11:49;;;;;;;13.43;8.10;;;;;;;12.48;75.82;99198.03;4898883;29;20567;-60
2022/10/06 11:14:44;;;;;;;10.57;7.80;;;;;;;12.47;75.92;99187.66;4912716;29;20779;-59
2022/10/06 11:17:29;;;;;;;11.48;7.72;;;;;;;12.54;75.32;99188.25;4912009;29;20091;-59
2022/10/06 11:20:21;;;;;;;10.80;7.50;;;;;;;12.57;75.41;99182.41;4916436;29;20048;-59
2022/10/06 11:22:55;;;;;;;11.18;7.50;;;;;;;12.58;75.25;99191.19;4864215;29;20584;-58
2022/10/06 11:26:01;;;;;;;11.63;8.00;;;;;;;12.54;75.77;99188.25;4912921;29;20410;-59
2022/10/06 11:28:33;;;;;;;13.18;7.40;;;;;;;12.61;75.80;99188.03;4875087;29;20596;-59
2022/10/06 11:31:11;;;;;;;11.65;7.72;;;;;;;12.69;75.56;99182.25;4891437;29;20502;-59
2022/10/06 11:33:46;;;;;;;9.57;7.65;;;;;;;12.71;75.06;99188.91;4895690;29;20052;-59
2022/10/06 11:36:24;;;;;;;9.98;7.88;;;;;;;12.67;75.47;99182.47;4895570;29;20066;-58
2022/10/06 11:39:07;;;;;;;15.18;8.18;;;;;;;12.65;75.22;99179.28;4914760;29;20127;-60
2022/10/06 11:41:47;;;;;;;11.68;8.43;;;;;;;12.73;75.05;99170.00;4914359;29;20052;-61
2022/10/06 11:44:21;;;;;;;12.18;7.60;;;;;;;12.71;75.59;99159.66;4896985;29;20059;-59
2022/10/06 11:47:07;;;;;;;12.48;8.07;;;;;;;12.69;75.33;99163.63;4883577;29;20530;-58
2022/10/06 11:49:53;;;;;;;16.58;8.65;;;;;;;12.65;75.42;99163.34;4895606;29;20056;-61
2022/10/06 11:52:19;;;;;;;11.98;7.50;;;;;;;12.67;75.75;99161.19;4896715;29;20130;-61
2022/10/06 11:54:50;;;;;;;12.38;8.18;;;;;;;12.76;75.54;99160.72;4897520;29;20040;-61
2022/10/06 11:57:21;;;;;;;11.23;7.88;;;;;;;12.85;75.14;99157.34;4915659;29;20400;-60
2022/10/06 11:59:49;;;;;;;10.60;7.97;;;;;;;12.82;75.45;99155.16;4913907;29;20067;-61
2022/10/06 12:02:33;;;;;;;10.27;7.68;;;;;;;12.89;75.14;99162.94;4913424;29;20052;-61
2022/10/06 12:05:08;;;;;;;12.52;7.63;;;;;;;12.92;75.05;99154.44;4914568;29;20037;-60